createdAt,value
2022-11-07T00:02:10.502Z,10.75
2022-11-07T00:04:38.395Z,10.74
2022-11-07T00:07:06.778Z,10.74
2022-11-07T00:09:34.790Z,10.71
2022-11-07T00:12:02.945Z,10.78
2022-11-07T00:14:32.173Z,10.81
2022-11-07T00:17:00.007Z,10.80
2022-11-07T00:19:27.917Z,10.85
2022-11-07T00:21:55.766Z,10.82
2022-11-07T00:24:23.875Z,10.84
2022-11-07T00:26:51.994Z,10.82
2022-11-07T00:29:22.496Z,10.84
2022-11-07T00:31:51.820Z,10.87
2022-11-07T00:34:19.821Z,10.84
2022-11-07T00:36:47.918Z,10.89
2022-11-07T00:39:15.815Z,10.80
2022-11-07T00:41:43.729Z,10.89
2022-11-07T00:44:11.582Z,10.97
2022-11-07T00:46:40.611Z,10.90
2022-11-07T00:49:09.981Z,10.97
2022-11-07T00:51:37.850Z,10.95
2022-11-07T00:54:07.573Z,10.93
2022-11-07T00:56:35.465Z,10.95
2022-11-07T00:59:03.593Z,10.97
2022-11-07T01:01:33.268Z,10.94
2022-11-07T01:04:19.087Z,11.02
2022-11-07T01:06:48.486Z,10.90
2022-11-07T01:09:17.889Z,10.94
2022-11-07T01:11:46.775Z,10.95
2022-11-07T01:14:15.902Z,10.98
2022-11-07T01:16:44.298Z,10.96
2022-11-07T01:19:14.311Z,10.94
2022-11-07T01:21:42.722Z,10.99
2022-11-07T01:24:13.279Z,10.99
2022-11-07T01:26:42.235Z,11.00
2022-11-07T01:29:10.441Z,10.94
2022-11-07T01:31:38.416Z,10.92
2022-11-07T01:34:06.394Z,10.92
2022-11-07T01:36:34.262Z,10.79
2022-11-07T01:39:02.103Z,10.71
2022-11-07T01:41:32.225Z,10.64
2022-11-07T01:44:04.572Z,10.59
2022-11-07T01:46:33.585Z,10.46
2022-11-07T01:49:08.134Z,10.40
2022-11-07T01:51:38.431Z,10.36
2022-11-07T01:54:07.198Z,10.32
2022-11-07T01:56:38.517Z,10.29
2022-11-07T01:59:07.230Z,10.31
2022-11-07T02:01:35.189Z,10.29
2022-11-07T02:04:05.608Z,10.33
2022-11-07T02:06:38.630Z,10.29
2022-11-07T02:09:06.696Z,10.26
2022-11-07T02:11:36.299Z,10.22
2022-11-07T02:14:04.377Z,10.26
2022-11-07T02:16:32.926Z,10.21
2022-11-07T02:19:01.001Z,10.20
2022-11-07T02:21:35.580Z,10.11
2022-11-07T02:24:07.514Z,10.17
2022-11-07T02:26:38.085Z,10.09
2022-11-07T02:29:08.304Z,10.04
2022-11-07T02:31:36.135Z,10.01
2022-11-07T02:34:04.396Z,10.11
2022-11-07T02:36:32.226Z,10.16
2022-11-07T02:39:00.632Z,10.16
2022-11-07T02:41:30.432Z,10.20
2022-11-07T02:44:01.468Z,10.24
2022-11-07T02:46:30.294Z,10.20
2022-11-07T02:48:59.123Z,10.22
2022-11-07T02:51:27.482Z,10.11
2022-11-07T02:53:57.304Z,10.11
2022-11-07T02:56:27.041Z,10.14
2022-11-07T02:58:55.283Z,10.20
2022-11-07T03:01:25.158Z,10.22
2022-11-07T03:03:53.885Z,10.21
2022-11-07T03:06:23.090Z,10.35
2022-11-07T03:08:51.454Z,10.46
2022-11-07T03:11:19.831Z,10.55
2022-11-07T03:13:48.638Z,10.56
2022-11-07T03:16:17.683Z,10.58
2022-11-07T03:18:47.071Z,10.68
2022-11-07T03:21:14.959Z,10.70
2022-11-07T03:23:42.984Z,10.70
2022-11-07T03:26:10.971Z,10.64
2022-11-07T03:28:38.866Z,10.63
2022-11-07T03:31:06.965Z,10.66
2022-11-07T03:33:34.926Z,10.67
2022-11-07T03:36:04.339Z,10.73
2022-11-07T03:38:32.350Z,10.72
2022-11-07T03:41:00.315Z,10.77
2022-11-07T03:43:28.251Z,10.83
2022-11-07T03:45:56.068Z,10.73
2022-11-07T03:48:23.904Z,10.60
2022-11-07T03:50:51.760Z,10.64
2022-11-07T03:53:25.395Z,10.59
2022-11-07T03:55:55.391Z,10.47
2022-11-07T03:58:23.595Z,10.37
2022-11-07T04:00:51.525Z,10.21
2022-11-07T04:03:19.484Z,10.21
2022-11-07T04:05:47.390Z,10.29
2022-11-07T04:08:15.487Z,10.31
2022-11-07T04:10:44.878Z,10.29
2022-11-07T04:13:30.133Z,10.29
2022-11-07T04:16:24.455Z,10.19
2022-11-07T04:18:54.163Z,10.29
2022-11-07T04:21:22.148Z,10.22
2022-11-07T04:23:50.180Z,10.23
2022-11-07T04:26:37.060Z,10.25
2022-11-07T04:29:05.052Z,10.14
2022-11-07T04:31:32.980Z,10.18
2022-11-07T04:34:00.910Z,10.25
2022-11-07T04:36:28.761Z,10.21
2022-11-07T04:38:56.628Z,10.26
2022-11-07T04:41:25.998Z,10.26
2022-11-07T04:43:56.957Z,10.22
2022-11-07T04:46:24.787Z,10.25
2022-11-07T04:48:52.609Z,10.31
2022-11-07T04:51:22.581Z,10.34
2022-11-07T04:53:50.509Z,10.38
2022-11-07T04:56:18.500Z,10.38
2022-11-07T04:58:47.770Z,10.35
2022-11-07T05:01:15.710Z,10.33
2022-11-07T05:03:43.568Z,10.32
2022-11-07T05:06:15.138Z,10.30
2022-11-07T05:08:45.958Z,10.41
2022-11-07T05:11:14.160Z,10.40
2022-11-07T05:13:42.099Z,10.39
2022-11-07T05:16:14.248Z,10.39
2022-11-07T05:18:42.811Z,10.40
2022-11-07T05:21:11.063Z,10.37
2022-11-07T05:23:39.824Z,10.43
2022-11-07T05:26:08.139Z,10.44
2022-11-07T05:28:39.741Z,10.49
2022-11-07T05:31:09.089Z,10.55
2022-11-07T05:33:38.906Z,10.54
2022-11-07T05:36:10.862Z,10.49
2022-11-07T05:38:41.000Z,10.45
2022-11-07T05:41:09.385Z,10.32
2022-11-07T05:43:40.942Z,10.29
2022-11-07T05:46:11.238Z,10.34
2022-11-07T05:48:40.705Z,10.35
2022-11-07T05:51:09.729Z,10.33
2022-11-07T05:53:38.676Z,10.28
2022-11-07T05:56:07.875Z,10.26
2022-11-07T05:58:35.770Z,10.24
2022-11-07T06:01:06.510Z,10.26
2022-11-07T06:03:34.657Z,10.30
2022-11-07T06:06:03.956Z,10.32
2022-11-07T06:08:32.998Z,10.30
2022-11-07T06:11:04.921Z,10.39
2022-11-07T06:13:33.572Z,10.49
2022-11-07T06:16:01.793Z,10.42
2022-11-07T06:18:30.970Z,10.48
2022-11-07T06:21:02.377Z,10.49
2022-11-07T06:23:32.064Z,10.52
2022-11-07T06:26:00.262Z,10.60
2022-11-07T06:28:28.761Z,10.64
2022-11-07T06:31:00.044Z,10.69
2022-11-07T06:33:29.764Z,10.67
2022-11-07T06:36:04.749Z,10.74
2022-11-07T06:38:34.202Z,10.73
2022-11-07T06:41:06.719Z,10.77
2022-11-07T06:43:35.070Z,10.84
2022-11-07T06:46:04.073Z,10.98
2022-11-07T06:48:31.960Z,11.03
2022-11-07T06:51:00.522Z,11.07
2022-11-07T06:53:28.719Z,11.13
2022-11-07T06:56:00.484Z,11.20
2022-11-07T06:58:28.516Z,11.25
2022-11-07T07:01:01.044Z,11.26
2022-11-07T07:03:29.132Z,11.33
2022-11-07T07:06:00.943Z,11.34
2022-11-07T07:08:29.157Z,11.37
2022-11-07T07:10:57.069Z,11.44
2022-11-07T07:13:26.244Z,11.48
2022-11-07T07:15:54.691Z,11.50
2022-11-07T07:18:23.042Z,11.49
2022-11-07T07:20:51.729Z,11.48
2022-11-07T07:23:21.005Z,11.53
2022-11-07T07:25:49.594Z,11.53
2022-11-07T07:28:17.455Z,11.54
2022-11-07T07:30:51.580Z,11.56
2022-11-07T07:33:19.932Z,11.65
2022-11-07T07:35:47.829Z,11.76
2022-11-07T07:38:15.757Z,11.83
2022-11-07T07:40:43.653Z,11.85
2022-11-07T07:43:12.696Z,11.98
2022-11-07T07:45:40.791Z,12.09
2022-11-07T07:48:10.177Z,12.11
2022-11-07T07:50:38.059Z,12.11
2022-11-07T07:53:09.069Z,12.08
2022-11-07T07:55:37.381Z,12.08
2022-11-07T07:58:05.231Z,12.08
2022-11-07T08:00:33.198Z,12.19
2022-11-07T08:03:01.658Z,12.22
2022-11-07T08:05:31.156Z,12.30
2022-11-07T08:07:59.423Z,12.41
2022-11-07T08:10:41.573Z,12.45
2022-11-07T08:13:10.272Z,12.57
2022-11-07T08:15:38.368Z,12.51
2022-11-07T08:18:06.337Z,12.50
2022-11-07T08:20:35.547Z,12.56
2022-11-07T08:23:16.453Z,12.48
2022-11-07T08:25:49.792Z,12.42
2022-11-07T08:28:17.880Z,12.47
2022-11-07T08:30:45.908Z,12.45
2022-11-07T08:33:14.178Z,12.48
2022-11-07T08:35:43.606Z,12.47
2022-11-07T08:38:11.483Z,12.51
2022-11-07T08:40:39.474Z,12.49
2022-11-07T08:43:07.486Z,12.45
2022-11-07T08:45:35.386Z,12.58
2022-11-07T08:48:03.386Z,12.66
2022-11-07T08:50:32.469Z,12.92
2022-11-07T08:53:03.411Z,13.02
2022-11-07T08:55:31.654Z,13.27
2022-11-07T08:58:00.178Z,13.45
2022-11-07T09:00:28.638Z,13.44
2022-11-07T09:03:30.784Z,13.19
2022-11-07T09:05:45.745Z,13.06
2022-11-07T09:08:14.903Z,12.71
2022-11-07T09:10:42.852Z,12.65
2022-11-07T09:13:10.824Z,12.67
2022-11-07T09:15:38.646Z,12.73
2022-11-07T09:18:07.203Z,12.71
2022-11-07T09:20:35.535Z,12.79
2022-11-07T09:23:03.376Z,12.88
2022-11-07T09:25:32.593Z,13.00
2022-11-07T09:28:02.622Z,12.85
2022-11-07T09:30:30.710Z,12.88
2022-11-07T09:32:58.675Z,12.92
2022-11-07T09:35:26.977Z,12.86
2022-11-07T09:37:55.039Z,12.89
2022-11-07T09:40:26.827Z,13.13
2022-11-07T09:43:01.918Z,13.25
2022-11-07T09:45:30.967Z,13.39
2022-11-07T09:48:01.236Z,13.39
2022-11-07T09:50:31.857Z,13.31
2022-11-07T09:53:02.180Z,13.26
2022-11-07T09:55:33.356Z,13.21
2022-11-07T09:58:03.842Z,13.30
2022-11-07T10:00:32.723Z,13.46
2022-11-07T10:03:01.717Z,13.47
2022-11-07T10:05:33.654Z,13.59
2022-11-07T10:08:04.605Z,13.62
2022-11-07T10:10:38.081Z,13.45
2022-11-07T10:13:21.004Z,13.42
2022-11-07T10:15:55.521Z,13.28
2022-11-07T10:18:29.608Z,13.24
2022-11-07T10:21:36.085Z,13.16
2022-11-07T10:23:59.760Z,12.91
2022-11-07T10:26:29.562Z,12.63
2022-11-07T10:29:00.344Z,12.41
2022-11-07T10:31:33.147Z,12.23
2022-11-07T10:34:02.964Z,12.08
2022-11-07T10:36:32.634Z,12.03
2022-11-07T10:39:01.662Z,12.01
2022-11-07T10:41:30.946Z,12.01
2022-11-07T10:44:03.908Z,12.04
2022-11-07T10:46:39.294Z,12.09
2022-11-07T10:49:18.562Z,12.05
2022-11-07T10:51:47.055Z,12.08
2022-11-07T10:54:22.235Z,12.08
2022-11-07T10:56:52.459Z,12.12
2022-11-07T10:59:24.548Z,12.08
2022-11-07T11:01:55.411Z,12.07
2022-11-07T11:04:23.894Z,12.17
2022-11-07T11:06:58.677Z,12.13
2022-11-07T11:09:31.016Z,12.05
2022-11-07T11:11:59.164Z,12.16
2022-11-07T11:14:27.015Z,12.21
2022-11-07T11:16:57.168Z,12.16
2022-11-07T11:19:26.267Z,12.23
2022-11-07T11:21:55.759Z,12.43
2022-11-07T11:24:31.943Z,12.54
2022-11-07T11:27:02.567Z,12.75
2022-11-07T11:29:39.281Z,13.10
2022-11-07T11:32:15.933Z,13.49
2022-11-07T11:34:50.087Z,13.50
2022-11-07T11:37:19.655Z,13.26
2022-11-07T11:39:50.214Z,13.31
2022-11-07T11:42:27.149Z,13.09
2022-11-07T11:44:57.863Z,13.10
2022-11-07T11:47:34.329Z,13.02
2022-11-07T11:50:05.631Z,13.23
2022-11-07T11:52:33.495Z,13.37
2022-11-07T11:55:01.526Z,13.29
2022-11-07T11:57:33.674Z,13.34
2022-11-07T12:00:06.672Z,13.60
2022-11-07T12:02:45.918Z,13.75
2022-11-07T12:05:21.797Z,13.95
2022-11-07T12:07:54.324Z,14.09
2022-11-07T12:10:26.619Z,14.77
2022-11-07T12:13:03.095Z,16.08
2022-11-07T12:15:35.006Z,16.63
2022-11-07T12:18:09.065Z,16.51
2022-11-07T12:20:43.024Z,16.22
2022-11-07T12:23:17.507Z,16.20
2022-11-07T12:25:51.234Z,16.83
2022-11-07T12:28:29.179Z,17.12
2022-11-07T12:30:59.933Z,16.60
2022-11-07T12:33:34.857Z,16.06
2022-11-07T12:36:06.027Z,15.52
2022-11-07T12:38:55.472Z,15.29
2022-11-07T12:41:28.055Z,15.45
2022-11-07T12:44:02.311Z,15.38
2022-11-07T12:46:39.259Z,15.06
2022-11-07T12:49:21.581Z,14.88
2022-11-07T12:51:58.719Z,14.86
2022-11-07T12:54:33.933Z,14.75
2022-11-07T12:57:03.785Z,14.59
2022-11-07T12:59:33.434Z,14.48
2022-11-07T13:02:03.890Z,14.49
2022-11-07T13:04:37.495Z,14.44
2022-11-07T13:07:10.104Z,14.51
2022-11-07T13:09:41.635Z,14.44
2022-11-07T13:12:12.310Z,14.35
2022-11-07T13:14:41.987Z,14.39
2022-11-07T13:17:15.132Z,14.29
2022-11-07T13:19:45.703Z,14.16
2022-11-07T13:22:24.190Z,14.22
2022-11-07T13:24:53.599Z,14.14
2022-11-07T13:27:23.132Z,14.21
2022-11-07T13:29:51.611Z,14.23
2022-11-07T13:32:20.775Z,14.11
2022-11-07T13:34:53.142Z,14.16
2022-11-07T13:37:22.875Z,14.14
2022-11-07T13:39:53.347Z,14.18
2022-11-07T13:42:23.100Z,14.12
2022-11-07T13:44:52.402Z,14.19
2022-11-07T13:47:25.031Z,14.03
2022-11-07T13:49:58.146Z,14.03
2022-11-07T13:52:30.795Z,13.92
2022-11-07T13:55:01.831Z,13.87
2022-11-07T13:57:32.409Z,13.91
2022-11-07T14:00:01.352Z,13.96
2022-11-07T14:02:30.570Z,14.00
2022-11-07T14:05:19.511Z,14.00
2022-11-07T14:07:49.397Z,14.06
2022-11-07T14:10:22.993Z,13.99
2022-11-07T14:12:52.962Z,13.99
2022-11-07T14:15:21.401Z,14.01
2022-11-07T14:17:49.661Z,14.04
2022-11-07T14:20:20.068Z,14.08
2022-11-07T14:22:53.301Z,14.09
2022-11-07T14:25:24.079Z,14.10
2022-11-07T14:27:52.418Z,14.14
2022-11-07T14:30:21.817Z,14.16
2022-11-07T14:32:51.350Z,14.23
2022-11-07T14:35:22.024Z,14.26
2022-11-07T14:37:50.849Z,14.22
2022-11-07T14:40:19.875Z,14.25
2022-11-07T14:42:49.045Z,14.27
2022-11-07T14:45:39.179Z,14.27
2022-11-07T14:48:10.871Z,14.18
2022-11-07T14:50:41.329Z,14.20
2022-11-07T14:53:11.912Z,14.18
2022-11-07T14:55:44.478Z,14.11
2022-11-07T14:58:13.084Z,14.18
2022-11-07T15:00:51.556Z,14.15
2022-11-07T15:03:21.324Z,14.16
2022-11-07T15:05:50.783Z,14.13
2022-11-07T15:08:29.154Z,14.10
2022-11-07T15:11:05.971Z,14.06
2022-11-07T15:13:34.592Z,14.06
2022-11-07T15:16:04.277Z,14.08
2022-11-07T15:18:39.942Z,14.08
2022-11-07T15:21:11.946Z,14.09
2022-11-07T15:23:40.271Z,14.02
2022-11-07T15:26:12.224Z,14.00
2022-11-07T15:28:47.915Z,14.04
2022-11-07T15:31:20.370Z,14.07
2022-11-07T15:33:48.882Z,14.05
2022-11-07T15:36:18.392Z,13.97
2022-11-07T15:38:46.429Z,13.93
2022-11-07T15:41:14.259Z,13.96
2022-11-07T15:43:42.155Z,13.97
2022-11-07T15:46:20.892Z,13.89
2022-11-07T15:48:49.055Z,13.93
2022-11-07T15:51:18.227Z,13.89
2022-11-07T15:53:46.118Z,13.93
2022-11-07T15:56:15.490Z,13.86
2022-11-07T15:58:43.930Z,13.88
2022-11-07T16:01:12.724Z,13.93
2022-11-07T16:03:41.122Z,13.89
2022-11-07T16:06:15.564Z,13.92
2022-11-07T16:08:45.160Z,13.82
2022-11-07T16:11:13.026Z,13.88
2022-11-07T16:13:41.092Z,13.97
2022-11-07T16:16:09.172Z,13.93
2022-11-07T16:18:40.310Z,13.89
2022-11-07T16:21:09.712Z,13.93
2022-11-07T16:23:37.769Z,13.83
2022-11-07T16:26:07.326Z,13.91
2022-11-07T16:28:35.953Z,13.91
2022-11-07T16:31:04.453Z,13.92
2022-11-07T16:33:32.763Z,13.93
2022-11-07T16:36:01.684Z,13.91
2022-11-07T16:38:36.844Z,13.93
2022-11-07T16:41:07.370Z,13.89
2022-11-07T16:43:45.542Z,13.88
2022-11-07T16:46:15.050Z,13.82
2022-11-07T16:48:43.641Z,13.88
2022-11-07T16:51:14.499Z,13.90
2022-11-07T16:53:42.594Z,13.86
2022-11-07T16:56:21.564Z,13.88
2022-11-07T16:58:53.028Z,13.82
2022-11-07T17:01:21.646Z,13.82
2022-11-07T17:03:49.935Z,13.76
2022-11-07T17:06:20.556Z,13.82
2022-11-07T17:08:49.112Z,13.79
2022-11-07T17:11:18.542Z,13.74
2022-11-07T17:13:46.803Z,13.78
2022-11-07T17:16:18.713Z,13.75
2022-11-07T17:18:47.475Z,13.72
2022-11-07T17:21:23.448Z,13.79
2022-11-07T17:23:52.423Z,13.69
2022-11-07T17:26:21.891Z,13.70
2022-11-07T17:28:50.355Z,13.72
2022-11-07T17:31:20.094Z,13.68
2022-11-07T17:33:48.310Z,13.69
2022-11-07T17:36:35.366Z,13.65
2022-11-07T17:39:07.921Z,13.65
2022-11-07T17:41:36.066Z,13.63
2022-11-07T17:44:04.573Z,13.58
2022-11-07T17:46:36.831Z,13.55
2022-11-07T17:49:06.738Z,13.63
2022-11-07T17:51:35.738Z,13.60
2022-11-07T17:54:04.118Z,13.63
2022-11-07T17:56:32.615Z,13.64
2022-11-07T17:59:00.999Z,13.70
2022-11-07T18:01:29.801Z,13.68
2022-11-07T18:04:03.392Z,13.67
2022-11-07T18:06:34.792Z,13.75
2022-11-07T18:09:03.366Z,13.72
2022-11-07T18:11:32.467Z,13.70
2022-11-07T18:14:01.368Z,13.74
2022-11-07T18:16:30.239Z,13.77
2022-11-07T18:19:00.576Z,13.73
2022-11-07T18:21:29.014Z,13.78
2022-11-07T18:23:57.727Z,13.75
2022-11-07T18:26:30.822Z,13.77
2022-11-07T18:29:06.444Z,13.76
2022-11-07T18:31:34.926Z,13.77
2022-11-07T18:34:05.622Z,13.87
2022-11-07T18:36:35.115Z,13.89
2022-11-07T18:39:03.372Z,13.85
2022-11-07T18:41:31.195Z,13.90
2022-11-07T18:44:04.234Z,13.90
2022-11-07T18:46:32.970Z,13.87
2022-11-07T18:49:01.531Z,13.77
2022-11-07T18:51:30.825Z,13.82
2022-11-07T18:54:00.511Z,13.76
2022-11-07T18:56:28.549Z,13.68
2022-11-07T18:58:56.848Z,13.76
2022-11-07T19:01:28.018Z,13.75
2022-11-07T19:03:56.448Z,13.70
2022-11-07T19:06:25.448Z,13.69
2022-11-07T19:08:55.288Z,13.66
2022-11-07T19:11:25.736Z,13.68
2022-11-07T19:13:54.082Z,13.72
2022-11-07T19:16:22.647Z,13.66
2022-11-07T19:18:51.002Z,13.71
2022-11-07T19:21:26.081Z,13.61
2022-11-07T19:23:55.572Z,13.59
2022-11-07T19:26:24.530Z,13.67
2022-11-07T19:28:53.863Z,13.66
2022-11-07T19:31:22.351Z,13.69
2022-11-07T19:33:51.463Z,13.66
2022-11-07T19:36:23.878Z,13.64
2022-11-07T19:38:53.203Z,13.59
2022-11-07T19:41:32.287Z,13.54
2022-11-07T19:44:04.612Z,13.57
2022-11-07T19:46:33.588Z,13.56
2022-11-07T19:49:02.069Z,13.56
2022-11-07T19:51:33.480Z,13.62
2022-11-07T19:54:01.853Z,13.65
2022-11-07T19:56:33.147Z,13.57
2022-11-07T19:59:02.773Z,13.58
2022-11-07T20:01:37.623Z,13.60
2022-11-07T20:04:11.947Z,13.60
2022-11-07T20:06:49.545Z,13.54
2022-11-07T20:09:21.432Z,13.61
2022-11-07T20:11:51.887Z,13.66
2022-11-07T20:14:21.665Z,13.72
2022-11-07T20:16:49.508Z,13.77
2022-11-07T20:19:17.890Z,13.77
2022-11-07T20:21:46.036Z,13.82
2022-11-07T20:24:14.499Z,13.83
2022-11-07T20:26:45.741Z,13.85
2022-11-07T20:29:19.124Z,13.85
2022-11-07T20:31:47.448Z,13.89
2022-11-07T20:34:16.310Z,13.87
2022-11-07T20:36:46.097Z,13.78
2022-11-07T20:39:15.185Z,13.79
2022-11-07T20:41:43.703Z,13.79
2022-11-07T20:44:13.253Z,13.80
2022-11-07T20:46:43.464Z,13.79
2022-11-07T20:49:12.335Z,13.73
2022-11-07T20:51:41.127Z,13.78
2022-11-07T20:54:12.004Z,13.76
2022-11-07T20:56:43.970Z,13.81
2022-11-07T20:59:12.137Z,13.78
2022-11-07T21:01:40.331Z,13.77
2022-11-07T21:04:11.643Z,13.76
2022-11-07T21:06:39.945Z,13.77
2022-11-07T21:09:08.409Z,13.76
2022-11-07T21:11:36.407Z,13.75
2022-11-07T21:14:04.920Z,13.68
2022-11-07T21:16:34.442Z,13.57
2022-11-07T21:19:04.920Z,13.46
2022-11-07T21:21:36.059Z,13.37
2022-11-07T21:24:04.516Z,13.18
2022-11-07T21:26:33.631Z,13.14
2022-11-07T21:29:02.371Z,13.04
2022-11-07T21:31:31.216Z,13.13
2022-11-07T21:33:59.624Z,13.25
2022-11-07T21:36:28.383Z,13.20
2022-11-07T21:38:58.634Z,13.06
2022-11-07T21:41:27.073Z,13.01
2022-11-07T21:43:54.960Z,12.99
2022-11-07T21:46:24.202Z,12.97
2022-11-07T21:48:52.778Z,12.91
2022-11-07T21:51:21.299Z,12.81
2022-11-07T21:53:49.524Z,12.71
2022-11-07T21:56:24.264Z,12.74
2022-11-07T21:58:58.464Z,12.68
2022-11-07T22:01:27.597Z,12.58
2022-11-07T22:04:12.460Z,12.49
2022-11-07T22:06:43.005Z,12.54
2022-11-07T22:09:11.982Z,12.62
2022-11-07T22:11:41.321Z,12.56
2022-11-07T22:14:10.515Z,12.48
2022-11-07T22:16:41.739Z,12.47
2022-11-07T22:19:12.777Z,12.30
2022-11-07T22:21:41.356Z,12.32
2022-11-07T22:24:09.338Z,12.42
2022-11-07T22:26:37.315Z,12.29
2022-11-07T22:29:06.601Z,12.26
2022-11-07T22:31:34.549Z,12.27
2022-11-07T22:34:02.552Z,12.31
2022-11-07T22:36:30.471Z,12.33
2022-11-07T22:38:59.137Z,12.29
2022-11-07T22:41:27.469Z,12.41
2022-11-07T22:43:55.841Z,12.28
2022-11-07T22:46:26.587Z,12.32
2022-11-07T22:48:54.993Z,12.27
2022-11-07T22:51:24.107Z,12.21
2022-11-07T22:53:55.958Z,12.01
2022-11-07T22:56:24.344Z,12.17
2022-11-07T22:58:52.352Z,12.12
2022-11-07T23:01:21.358Z,12.05
2022-11-07T23:03:51.549Z,12.09
2022-11-07T23:06:19.804Z,11.99
2022-11-07T23:08:48.264Z,12.02
2022-11-07T23:14:09.205Z,12.08
2022-11-07T23:16:38.353Z,12.09
2022-11-07T23:19:09.935Z,12.10
2022-11-07T23:21:38.158Z,12.07
2022-11-07T23:24:06.618Z,11.93
2022-11-07T23:26:34.610Z,11.96
2022-11-07T23:29:08.968Z,11.97
2022-11-07T23:31:38.523Z,11.93
2022-11-07T23:34:07.828Z,11.88
2022-11-07T23:36:35.694Z,11.88
2022-11-07T23:39:04.604Z,11.73
2022-11-07T23:41:32.524Z,11.71
2022-11-07T23:44:00.664Z,11.83
2022-11-07T23:46:45.869Z,11.64
2022-11-07T23:49:32.996Z,11.73
2022-11-07T23:52:00.968Z,11.71
2022-11-07T23:54:46.216Z,11.76
2022-11-07T23:57:14.545Z,11.78
2022-11-07T23:59:59.730Z,11.85
